Latest Coastal Weather Observations for Dum In Mirrie

IDD60701

Issued at 8:41 pm CST Sunday 1 March 2015 (issued every 10 minutes, with the page automatically refreshed every 10 minutes)

About coastal observations | Map of coastal stations | Coastal observations for NT | Marine services | Other Formats
Station Details ID: 014277 Name: DUM IN MIRRIE AIRSTRIP Lat: -12.63 Lon: 130.37 Height: 3.5 m
Data from the previous 72 hours. | See also: Recent months at Dum In Mirrie
Date/Time
CST
Temp

°C
Wind Pressure Rain
since 9am
mm
Weather Cloud Vis
km
Sea
Height
m
Swell
Dir
 
Speed
knots
Gust
knots
hPa Trend Height
m
Period
s
Dir
01/08:30pm 29.2 NW 3 6 1005.3 - 0.0 - - - - - - -
01/08:00pm 29.5 WSW 5 13 1005.2 - 0.0 - - - - - - -
01/07:30pm 29.6 WSW 5 12 1005.1 - 0.0 - - - - - - -
01/07:00pm 29.8 W 8 12 1005.1 - 0.0 - - - - - - -
01/06:30pm 30.1 W 10 16 1004.5 - 0.0 - - - - - - -
01/06:00pm 30.4 WSW 11 16 1004.4 - 0.0 - - - - - - -
01/05:30pm 30.3 W 10 15 1003.9 - 0.0 - - - - - - -
01/05:00pm 29.8 WSW 7 11 1003.7 - 0.0 - - - - - - -
01/04:30pm 29.6 W 6 10 1004.1 - 0.0 - - - - - - -
01/04:00pm 30.0 W 6 11 1003.7 - 0.0 - - - - - - -
01/03:30pm 30.1 W 7 12 1004.1 - 0.0 - - - - - - -
01/03:00pm 30.1 W 7 13 1003.9 - 0.0 - - - - - - -
01/02:30pm 31.9 W 7 13 1004.5 - 0.0 - - - - - - -
01/02:00pm 31.9 W 7 11 1004.9 - 0.0 - - - - - - -
01/01:30pm 32.0 W 6 10 1005.3 - 0.0 - - - - - - -
01/01:00pm 32.0 W 5 9 1006.0 - 0.0 - - - - - - -
01/12:30pm 32.0 W 6 9 1006.6 - 0.0 - - - - - - -
01/12:00pm 31.7 W 6 11 1006.9 - 0.0 - - - - - - -
01/11:30am 31.6 W 5 10 1007.2 - 0.0 - - - - - - -
01/11:00am 31.6 W 6 9 1007.4 - 0.0 - - - - - - -
01/10:30am 31.3 W 6 9 1007.6 - 0.0 - - - - - - -
01/10:00am 30.9 W 7 11 1007.4 - 0.0 - - - - - - -
01/09:30am 30.5 W 6 10 1007.4 - 0.0 - - - - - - -
01/09:00am 30.0 W 7 13 1007.2 - 0.2 - - - - - - -
01/08:30am 29.7 W 6 12 1006.7 - 0.2 - - - - - - -
01/08:00am 29.6 W 5 8 1006.3 - 0.2 - - - - - - -
01/07:30am 29.1 W 4 8 1006.0 - 0.2 - - - - - - -
01/07:00am 28.9 WNW 5 11 1005.8 - 0.2 - - - - - - -
01/06:30am 28.9 WNW 5 9 1005.5 - 0.2 - - - - - - -
01/06:00am 28.9 WNW 5 9 1005.1 - 0.2 - - - - - - -
01/05:30am 28.9 WNW 5 8 1004.8 - 0.2 - - - - - - -
01/05:00am 28.8 W 5 7 1004.7 - 0.2 - - - - - - -
01/04:30am 28.9 W 5 8 1004.9 - 0.2 - - - - - - -
01/04:00am 28.9 W 6 10 1004.8 - 0.2 - - - - - - -
01/03:30am 28.9 W 6 12 1005.0 - 0.2 - - - - - - -
01/03:00am 28.9 W 6 10 1005.6 - 0.2 - - - - - - -
01/02:30am 28.9 WNW 6 11 1005.6 - 0.2 - - - - - - -
01/02:00am 29.0 W 5 9 1005.9 - 0.2 - - - - - - -
01/01:30am 29.0 W 6 11 1006.1 - 0.2 - - - - - - -
01/01:00am 29.1 W 5 8 1006.6 - 0.2 - - - - - - -
01/12:30am 29.0 W 6 9 1006.4 - 0.2 - - - - - - -
01/12:00am 29.1 W 5 9 1007.3 - 0.2 - - - - - - -
 
Date/Time
CST
Temp

°C
Wind Pressure Rain
since 9am
mm
Weather Cloud Vis
km
Sea
Height
m
Swell
Dir
 
Speed
knots
Gust
knots
hPa Trend Height
m
Period
s
Dir
28/11:30pm 29.2 W 7 14 1007.7 - 0.2 - - - - - - -
28/11:00pm 29.3 W 8 14 1007.7 - 0.2 - - - - - - -
28/10:30pm 29.2 W 6 11 1007.8 - 0.2 - - - - - - -
28/10:00pm 29.1 W 6 9 1007.7 - 0.2 - - - - - - -
28/09:30pm 29.2 W 6 11 1007.1 - 0.2 - - - - - - -
28/09:00pm 29.2 W 6 12 1006.5 - 0.2 - - - - - - -
28/08:30pm 29.1 W 5 9 1005.7 - 0.2 - - - - - - -
28/08:00pm 29.1 W 5 9 1005.2 - 0.2 - - - - - - -
28/07:30pm 29.4 W 4 8 1004.9 - 0.2 - - - - - - -
28/07:00pm 29.5 W 4 8 1004.8 - 0.2 - - - - - - -
28/06:30pm 29.7 W 6 10 1004.4 - 0.2 - - - - - - -
28/06:00pm 30.7 W 5 8 1004.2 - 0.2 - - - - - - -
28/05:30pm 30.4 W 7 11 1004.2 - 0.2 - - - - - - -
28/05:00pm 30.2 WNW 7 11 1004.4 - 0.2 - - - - - - -
28/04:30pm 30.8 W 6 11 1005.0 - 0.2 - - - - - - -
28/04:00pm 30.8 W 8 13 1005.1 - 0.2 - - - - - - -
28/03:30pm 30.6 WNW 6 10 1005.0 - 0.2 - - - - - - -
28/03:00pm 30.7 WNW 8 12 1005.2 - 0.2 - - - - - - -
28/02:30pm 31.3 W 7 13 1005.4 - 0.2 - - - - - - -
28/02:00pm 30.8 WNW 9 14 1005.8 - 0.2 - - - - - - -
28/01:30pm 31.2 W 6 10 1006.2 - 0.2 - - - - - - -
28/01:00pm 31.2 W 6 10 1006.8 - 0.2 - - - - - - -
28/12:30pm 31.3 W 7 11 1007.3 - 0.2 - - - - - - -
28/12:00pm 31.2 W 5 10 1007.5 - 0.2 - - - - - - -
28/11:30am 30.9 W 6 11 1007.6 - 0.2 - - - - - - -
28/11:00am 30.2 W 4 7 1007.9 - 0.2 - - - - - - -
28/10:30am 29.8 W 5 9 1007.9 - 0.2 - - - - - - -
28/10:00am 29.3 WSW 2 5 1007.6 - 0.2 - - - - - - -
28/09:30am 29.1 SW 2 4 1007.4 - 0.0 - - - - - - -
28/09:00am 28.7 WSW 3 5 1007.2 - 26.0 - - - - - - -
28/08:30am 28.1 SW 3 6 1006.9 - 26.0 - - - - - - -
28/08:00am 27.7 SW 5 8 1006.5 - 26.0 - - - - - - -
28/07:30am 26.6 WSW 2 5 1006.1 - 26.0 - - - - - - -
28/07:00am 25.6 SW 7 12 1005.9 - 26.0 - - - - - - -
28/06:30am 25.0 SW 7 13 1006.3 - 26.0 - - - - - - -
28/06:00am 24.0 WSW 4 7 1006.7 - 26.0 Rain - - - - - -
28/05:30am 24.7 NNE 10 15 1007.4 - 13.2 - - - - - - -
28/05:00am 26.1 WNW 8 14 1006.4 - 5.0 - - - - - - -
28/04:30am 26.9 W 10 19 1006.0 - 0.4 - - - - - - -
28/04:00am 27.1 WNW 8 16 1005.7 - 0.4 - - - - - - -
28/03:30am 28.5 W 6 10 1006.0 - 0.0 - - - - - - -
28/03:00am 28.7 WNW 7 11 1006.0 - 0.0 - - - - - - -
28/02:30am 28.8 WNW 6 10 1006.5 - 0.0 - - - - - - -
28/02:00am 28.8 WNW 6 10 1006.8 - 0.0 - - - - - - -
28/01:30am 28.8 WNW 5 11 1006.8 - 0.0 - - - - - - -
28/01:00am 28.8 WNW 5 9 1007.1 - 0.0 - - - - - - -
28/12:30am 28.9 WNW 7 11 1007.1 - 0.0 - - - - - - -
28/12:00am 28.9 WNW 5 10 1007.7 - 0.0 - - - - - - -
 
Date/Time
CST
Temp

°C
Wind Pressure Rain
since 9am
mm
Weather Cloud Vis
km
Sea
Height
m
Swell
Dir
 
Speed
knots
Gust
knots
hPa Trend Height
m
Period
s
Dir
27/11:30pm 28.7 WNW 4 8 1008.5 - 0.0 - - - - - - -
27/11:00pm 28.7 WNW 5 8 1008.7 - 0.0 - - - - - - -
27/10:30pm 28.9 WNW 4 8 1008.4 - 0.0 - - - - - - -
27/10:00pm 28.9 WNW 6 11 1008.5 - 0.0 - - - - - - -
27/09:30pm 29.2 WNW 5 8 1007.9 - 0.0 - - - - - - -
27/09:00pm 29.2 WNW 5 9 1007.1 - 0.0 - - - - - - -
27/08:30pm 29.1 W 4 7 1006.8 - 0.0 - - - - - - -
27/08:00pm 29.1 W 5 8 1006.3 - 0.0 - - - - - - -
27/07:30pm 29.2 W 6 10 1006.2 - 0.0 - - - - - - -
27/07:00pm 29.3 W 6 11 1005.8 - 0.0 - - - - - - -
27/06:30pm 29.1 WNW 6 9 1005.2 - 0.0 - - - - - - -
27/06:00pm 29.1 W 6 13 1004.7 - 0.0 - - - - - - -
27/05:30pm 28.8 W 5 9 1004.6 - 0.0 - - - - - - -
27/05:00pm 28.7 W 5 9 1004.7 - 0.0 - - - - - - -
27/04:30pm 28.6 WNW 4 8 1004.2 - 0.0 - - - - - - -
27/04:00pm 28.5 WNW 6 11 1004.7 - 0.0 - - - - - - -
27/03:30pm 29.4 W 10 15 1004.7 - 0.0 - - - - - - -
27/03:00pm 30.4 WSW 4 9 1004.8 - 0.0 - - - - - - -
27/02:30pm 30.4 WSW 5 10 1005.0 - 0.0 - - - - - - -
27/02:00pm 31.6 W 8 12 1005.5 - 0.0 - - - - - - -
27/01:30pm 31.2 WSW 9 13 1005.9 - 0.0 - - - - - - -
27/01:00pm 31.4 W 9 13 1006.2 - 0.0 - - - - - - -
27/12:30pm 31.6 W 6 9 1006.9 - 0.0 - - - - - - -
27/12:00pm 31.1 W 9 12 1007.5 - 0.0 - - - - - - -
27/11:30am 31.6 W 6 11 1007.8 - 0.0 - - - - - - -
27/11:00am 30.8 W 7 10 1007.8 - 0.0 - - - - - - -
27/10:30am 30.8 W 4 8 1007.8 - 0.0 - - - - - - -
27/10:00am 30.1 W 5 9 1007.8 - 0.0 - - - - - - -
27/09:30am 30.1 W 5 8 1007.8 - 0.0 - - - - - - -
27/09:00am 30.1 W 4 7 1007.8 - 0.0 - - - - - - -
27/08:30am 29.8 W 4 8 1007.4 - 0.0 - - - - - - -
27/08:00am 29.6 WSW 5 10 1006.8 - 0.0 - - - - - - -
27/07:30am 29.1 W 6 10 1006.1 - 0.0 - - - - - - -
27/07:00am 29.0 W 8 12 1005.6 - 0.0 - - - - - - -
27/06:30am 28.8 SW 2 5 1005.9 - 0.0 - - - - - - -
27/06:00am 28.8 W 4 8 1005.5 - 0.0 - - - - - - -
27/05:30am 28.8 W 4 8 1005.7 - 0.0 - - - - - - -
27/05:00am 28.8 W 5 8 1005.3 - 0.0 - - - - - - -
27/04:30am 28.6 WNW 3 6 1005.1 - 0.0 - - - - - - -
27/04:00am 28.7 WNW 3 5 1005.5 - 0.0 - - - - - - -
27/03:30am 28.8 WNW 3 5 1005.6 - 0.0 - - - - - - -
27/03:00am 28.9 WNW 4 9 1005.7 - 0.0 - - - - - - -
27/02:30am 29.0 WNW 4 7 1006.0 - 0.0 - - - - - - -
27/02:00am 29.0 WNW 4 7 1006.5 - 0.0 - - - - - - -
27/01:30am 29.1 WNW 4 8 1007.2 - 0.0 - - - - - - -
27/01:00am 29.0 WNW 3 7 1007.8 - 0.0 - - - - - - -
27/12:30am 29.1 WNW 4 7 1007.8 - 0.0 - - - - - - -
27/12:00am 29.2 WNW 5 10 1007.6 - 0.0 - - - - - - -
 
Date/Time
CST
Temp

°C
Wind Pressure Rain
since 9am
mm
Weather Cloud Vis
km
Sea
Height
m
Swell
Dir
 
Speed
knots
Gust
knots
hPa Trend Height
m
Period
s
Dir
26/11:30pm 29.2 WNW 4 9 1008.0 - 0.0 - - - - - - -
26/11:00pm 29.2 NW 4 9 1008.5 - 0.0 - - - - - - -
26/10:30pm 29.2 NW 5 8 1008.2 - 0.0 - - - - - - -
26/10:00pm 29.1 WNW 4 8 1007.5 - 0.0 - - - - - - -
26/09:30pm 29.1 NW 5 9 1007.0 - 0.0 - - - - - - -
26/09:00pm 29.2 WNW 5 9 1007.0 - 0.0 - - - - - - -

Other Formats:

Comma delimited format used in spreadsheet applications
http://www.bom.gov.au/fwo/IDD60701/IDD60701.94116.axf

JavaScript Object Notation format (JSON) in row-major order
http://www.bom.gov.au/fwo/IDD60701/IDD60701.94116.json